LKPR METAR and TAF | Updated Today

LKPR METAR

Václav Havel Airport Prague

Observation time: 16 min. ago

LKPR 061900Z 06004KT 030V100 CAVOK M05/M07 Q1038 NOSIG

Need help? Read our tutorial on how to read METARs or read the parsed version below.

Václav Havel Airport Prague (LKPR) METAR

  • Weather conditions on Mon, 06 Feb 2023 19:00:00 +0000 (16 min. ago):
  • Present conditions: Dry
  • Clouds: Clear skies
  • Visibility: Greater than 10 km
  • Wind: 60 degrees at 4 knots
  • Temperature: -5 celsius
  • Dew point: -7 celsius
  • Pressure: 1038 millibars
  • Remarks: None


Useful to know...

LKPR TAF

Václav Havel Airport Prague

TAF LKPR 061400Z 0615/0721 VRB02KT CAVOK TEMPO 0615/0618 06008KT TEMPO 0704/0709 5000 BR NSC
Observation time: 5:16 hr. ago
Need help? Read our tutorial on how to read TAFs or read the parsed version below.

Parsed version of TAF for Václav Havel Airport Prague (LKPR)

  • From 06 February at 15:00 UTC, to day 07 of the month at 21:00 UTC
  • Visibility: Greater than 10 km
  • Wind: Variable at 2
  • Expected to arise temporarily, from 06 February at 15:00 UTC, to day 06 of the month at 18:00 UTC
  • Wind: 60 degrees at 8
  • Expected to arise temporarily, from 07 February at 04:00 UTC, to day 07 of the month at 09:00 UTC
  • Clouds: No significant clouds are observed
  • Visibility: 5000 meters
  • Other: Mist